Time;durP1;ratioP1;P1;durP2;ratioP2;P2;SDS_P1;SDS_P2;PMS_P1;PMS_P2;Temp;Humidity;BMP_temperature;BMP_pressure;BME280_temperature;BME280_humidity;BME280_pressure;Samples;Min_cycle;Max_cycle;Signal;HPM_P1;HPM_P2
2022/06/04 00:01:54;;;;;;;1.13;0.90;;;;;;;21.40;50.27;101997.75;5112064;27;20415;-58
2022/06/04 00:04:20;;;;;;;2.05;0.90;;;;;;;21.40;50.34;101997.75;5111628;28;20032;-59
2022/06/04 00:06:46;;;;;;;2.17;1.00;;;;;;;21.40;50.48;101991.50;5107299;28;20020;-57
2022/06/04 00:09:12;;;;;;;1.05;0.60;;;;;;;21.35;50.37;101986.56;5114718;28;20019;-59
2022/06/04 00:17:06;;;;;;;0.70;0.70;;;;;;;21.39;50.40;102017.72;5107216;28;20115;-59
2022/06/04 00:19:32;;;;;;;0.90;0.80;;;;;;;21.38;50.28;102016.00;5104310;28;20102;-60
2022/06/04 00:21:57;;;;;;;1.42;0.95;;;;;;;21.37;50.14;102019.72;5116676;28;20023;-59
2022/06/04 00:24:23;;;;;;;0.95;0.80;;;;;;;21.38;50.22;102017.88;5114062;28;20028;-59
2022/06/04 00:26:48;;;;;;;1.63;1.13;;;;;;;21.37;50.59;102021.59;5107969;28;20523;-59
2022/06/04 00:29:13;;;;;;;1.88;1.02;;;;;;;21.37;50.53;102019.72;5084885;28;20028;-59
2022/06/04 00:31:39;;;;;;;1.70;0.98;;;;;;;21.34;50.18;102013.78;5104996;28;20027;-57
2022/06/04 00:34:04;;;;;;;1.02;0.80;;;;;;;21.37;50.46;102019.72;5105629;28;20038;-58
2022/06/04 00:36:31;;;;;;;2.00;0.90;;;;;;;21.37;50.62;102024.31;5092765;28;20043;-59
2022/06/04 00:38:56;;;;;;;1.85;1.00;;;;;;;21.37;50.64;102016.19;5106428;28;20051;-59
2022/06/04 00:41:45;;;;;;;1.08;0.82;;;;;;;21.30;50.19;102005.09;5104531;28;20064;-59
2022/06/04 00:44:11;;;;;;;1.33;0.90;;;;;;;21.37;50.49;102021.59;5102447;28;20123;-57
2022/06/04 00:46:39;;;;;;;1.20;0.80;;;;;;;21.36;50.47;102026.13;5104271;28;20032;-57
2022/06/04 00:49:04;;;;;;;1.15;0.95;;;;;;;21.35;50.16;102027.16;5106245;28;20016;-59
2022/06/04 00:51:30;;;;;;;1.30;1.00;;;;;;;21.36;50.42;102020.72;5107426;28;20043;-59
2022/06/04 00:53:56;;;;;;;1.35;0.90;;;;;;;21.35;50.11;102015.47;5102494;28;20035;-59
2022/06/04 00:56:40;;;;;;;1.58;1.00;;;;;;;21.34;50.28;102020.03;5109908;28;20032;-59
2022/06/04 00:59:28;;;;;;;1.00;0.80;;;;;;;21.35;50.53;102020.88;5082069;28;20043;-58
2022/06/04 01:02:02;;;;;;;2.25;0.85;;;;;;;21.34;50.19;102017.34;5103870;28;20012;-57
2022/06/04 01:04:47;;;;;;;1.50;0.82;;;;;;;21.35;50.45;102012.78;5089497;28;20638;-59
2022/06/04 01:07:30;;;;;;;0.95;0.85;;;;;;;21.33;50.44;102012.94;5073261;28;20557;-58
2022/06/04 01:10:20;;;;;;;1.35;0.95;;;;;;;21.34;50.54;102024.59;5106251;28;20028;-59
2022/06/04 01:13:01;;;;;;;1.17;1.05;;;;;;;21.33;50.25;102023.75;5100856;28;20456;-59
2022/06/04 01:15:36;;;;;;;1.10;1.00;;;;;;;21.32;50.14;102010.38;5105804;28;20043;-55
2022/06/04 01:18:17;;;;;;;2.10;1.00;;;;;;;21.33;50.27;102017.50;5107330;28;20560;-57
2022/06/04 01:21:20;;;;;;;1.42;1.05;;;;;;;21.32;50.13;102011.22;5100835;28;20028;-57
2022/06/04 01:24:14;;;;;;;1.95;0.90;;;;;;;21.32;50.55;102010.38;5112363;28;20016;-59
2022/06/04 01:26:56;;;;;;;1.80;1.08;;;;;;;21.30;50.13;102018.63;5089017;28;20027;-59
2022/06/04 01:29:46;;;;;;;1.10;1.00;;;;;;;21.27;50.28;102010.81;5094235;28;20034;-58
2022/06/04 01:32:23;;;;;;;1.70;1.20;;;;;;;21.29;50.10;102011.53;5106464;28;20420;-58
2022/06/04 01:35:11;;;;;;;1.80;1.15;;;;;;;21.30;50.27;102017.78;5103241;28;20042;-59
2022/06/04 01:37:50;;;;;;;1.40;1.05;;;;;;;21.29;50.42;102011.53;5097631;28;20462;-59
2022/06/04 01:43:07;;;;;;;1.70;1.33;;;;;;;21.29;50.42;102029.63;5092441;28;20093;-57
2022/06/04 01:45:32;;;;;;;1.70;1.40;;;;;;;21.28;50.46;102023.34;5095965;28;20024;-54
2022/06/04 01:48:01;;;;;;;2.47;1.08;;;;;;;21.24;50.51;102021.97;5089786;28;20024;-58
2022/06/04 01:50:30;;;;;;;2.55;1.30;;;;;;;21.28;50.53;102041.41;5109008;28;20020;-59
2022/06/04 01:52:55;;;;;;;;;;;;;;;21.28;50.46;102063.06;5091145;28;20023;-57
2022/06/04 01:55:24;;;;;;;1.15;0.98;;;;;;;21.28;50.10;102071.16;5094767;28;19922;-58
2022/06/04 01:58:00;;;;;;;1.27;1.08;;;;;;;21.27;50.02;102067.63;5087583;28;20024;-58
2022/06/04 02:00:30;;;;;;;3.35;1.40;;;;;;;21.26;49.90;102060.53;5096312;28;20027;-58
2022/06/04 02:03:11;;;;;;;1.23;1.05;;;;;;;21.24;50.15;102057.13;5104571;28;20028;-59
2022/06/04 02:05:44;;;;;;;1.50;1.10;;;;;;;21.26;49.97;102068.63;5089838;28;20042;-58
2022/06/04 02:08:12;;;;;;;2.03;1.20;;;;;;;21.26;49.89;102068.63;5076508;28;20026;-59
2022/06/04 02:10:41;;;;;;;1.53;1.23;;;;;;;21.26;49.86;102068.63;5098707;28;20109;-58
2022/06/04 02:13:09;;;;;;;1.40;1.20;;;;;;;21.26;50.01;102065.09;5091697;28;20752;-58
2022/06/04 02:16:03;;;;;;;2.23;1.50;;;;;;;21.25;50.05;102064.25;5112838;28;20023;-58
2022/06/04 02:18:28;;;;;;;2.10;1.27;;;;;;;21.25;49.99;102064.25;5090239;28;20063;-57
2022/06/04 02:20:53;;;;;;;2.42;1.25;;;;;;;21.25;50.03;102056.13;5107325;28;20028;-58
2022/06/04 02:23:19;;;;;;;1.15;1.05;;;;;;;21.24;49.73;102040.91;5106896;28;20035;-58
2022/06/04 02:25:45;;;;;;;1.42;1.15;;;;;;;21.23;49.78;102042.72;5109843;28;20028;-57
2022/06/04 02:28:10;;;;;;;2.88;1.20;;;;;;;21.24;49.68;102046.31;5090413;28;20027;-58
2022/06/04 02:30:47;;;;;;;2.30;1.42;;;;;;;21.24;49.72;102046.31;5105371;28;20038;-58
2022/06/04 02:33:18;;;;;;;2.17;1.33;;;;;;;21.22;49.83;102035.63;5090215;28;20551;-58
2022/06/04 02:36:05;;;;;;;4.00;1.30;;;;;;;21.18;50.10;102028.00;5086670;28;20035;-59
2022/06/04 02:38:50;;;;;;;1.30;1.20;;;;;;;21.23;49.61;102034.63;5108354;28;20472;-58
2022/06/04 02:41:21;;;;;;;2.28;1.33;;;;;;;21.23;49.63;102044.59;5105902;28;20052;-57
2022/06/04 02:43:55;;;;;;;2.25;1.30;;;;;;;21.22;49.51;102046.44;5071491;28;20043;-58
2022/06/04 02:46:31;;;;;;;1.92;1.35;;;;;;;21.21;49.72;102047.47;5092598;28;20046;-57
2022/06/04 02:49:28;;;;;;;1.67;1.40;;;;;;;21.22;50.00;102040.19;5089035;28;20034;-58
2022/06/04 02:51:54;;;;;;;3.15;1.42;;;;;;;21.18;49.72;102042.34;5086128;28;20090;-57
2022/06/04 02:54:27;;;;;;;2.13;1.55;;;;;;;21.21;49.66;102038.50;5103692;28;20476;-57
2022/06/04 02:56:54;;;;;;;1.83;1.40;;;;;;;21.20;49.64;102029.53;5094387;28;20031;-57
2022/06/04 02:59:20;;;;;;;2.22;1.30;;;;;;;21.20;49.89;102026.84;5112148;28;20050;-58
2022/06/04 03:01:48;;;;;;;2.03;1.50;;;;;;;21.20;49.86;102018.72;5090726;28;20020;-58
2022/06/04 03:04:13;;;;;;;1.33;1.17;;;;;;;21.18;49.52;102006.34;5108693;27;20039;-58
2022/06/04 03:06:39;;;;;;;2.20;1.42;;;;;;;21.18;49.46;102018.03;5104363;28;20032;-58
2022/06/04 03:09:07;;;;;;;1.83;1.30;;;;;;;21.19;49.74;102011.59;5104659;28;20087;-58
2022/06/04 03:11:41;;;;;;;3.60;1.40;;;;;;;21.19;49.59;102010.75;5082961;28;20099;-57
2022/06/04 03:14:07;;;;;;;2.55;1.40;;;;;;;21.19;49.56;102010.75;5109863;28;20591;-57
2022/06/04 03:16:38;;;;;;;1.70;1.48;;;;;;;21.18;49.53;102007.19;5106743;28;20058;-58
2022/06/04 03:19:05;;;;;;;1.42;1.33;;;;;;;21.18;49.66;102003.66;5105953;28;20020;-57
2022/06/04 03:21:30;;;;;;;2.10;1.50;;;;;;;21.17;49.94;102013.63;5109635;28;20020;-57
2022/06/04 03:23:55;;;;;;;2.50;1.52;;;;;;;21.16;49.83;102009.22;5109322;28;20123;-58
2022/06/04 03:26:21;;;;;;;1.98;1.50;;;;;;;21.16;49.41;101995.72;5103616;28;20035;-58
2022/06/04 03:28:47;;;;;;;1.80;1.48;;;;;;;21.15;49.67;101996.72;5090604;28;20077;-58
2022/06/04 03:31:12;;;;;;;1.92;1.48;;;;;;;21.14;49.83;101989.59;5114178;28;20093;-59
2022/06/04 03:33:37;;;;;;;3.88;1.98;;;;;;;21.15;49.79;101985.91;5106554;28;20027;-58
2022/06/04 03:36:03;;;;;;;2.20;1.42;;;;;;;21.15;49.50;101991.31;5104593;28;20026;-56
2022/06/04 03:38:28;;;;;;;3.35;1.48;;;;;;;21.15;49.44;101987.72;5105265;28;20024;-58
2022/06/04 03:40:54;;;;;;;2.08;1.73;;;;;;;21.15;49.53;101994.03;5108367;28;20079;-59
2022/06/04 03:43:19;;;;;;;1.85;1.40;;;;;;;21.15;49.51;101990.44;5106003;28;20024;-59
2022/06/04 03:45:44;;;;;;;2.08;1.50;;;;;;;21.15;49.58;101998.53;5105854;28;20031;-58
2022/06/04 03:48:10;;;;;;;2.15;1.50;;;;;;;21.15;49.76;101990.44;5105026;28;20492;-58
2022/06/04 03:50:35;;;;;;;3.47;1.85;;;;;;;21.09;49.70;101997.34;5107069;28;20024;-57
2022/06/04 03:53:00;;;;;;;2.80;1.52;;;;;;;21.14;49.10;102013.94;5105451;28;20032;-59
2022/06/04 03:55:27;;;;;;;1.92;1.40;;;;;;;21.14;48.98;102007.69;5107265;28;20036;-59
2022/06/04 03:57:52;;;;;;;1.80;1.40;;;;;;;21.14;49.08;102015.78;5092480;28;20032;-59
2022/06/04 04:00:33;;;;;;;2.08;1.52;;;;;;;21.14;49.33;102013.94;5090111;28;20096;-59
2022/06/04 04:03:08;;;;;;;3.47;1.50;;;;;;;21.14;48.88;102018.50;5116730;28;20036;-59
2022/06/04 04:05:37;;;;;;;2.28;1.52;;;;;;;21.12;49.29;102010.53;5105229;28;20036;-59
2022/06/04 04:08:05;;;;;;;3.25;1.40;;;;;;;21.13;49.17;102017.66;5104377;27;20023;-57
2022/06/04 04:10:31;;;;;;;1.67;1.50;;;;;;;21.12;49.15;102021.38;5113181;27;20087;-59
2022/06/04 04:12:57;;;;;;;2.30;1.58;;;;;;;21.13;49.39;102033.88;5102739;28;20023;-59
2022/06/04 04:15:23;;;;;;;3.85;1.88;;;;;;;21.12;49.36;102037.59;5107141;28;20027;-59
2022/06/04 04:17:49;;;;;;;2.78;1.60;;;;;;;21.12;49.25;102045.69;5107129;28;20079;-59
2022/06/04 04:20:21;;;;;;;1.98;1.50;;;;;;;21.12;49.10;102042.16;5102256;28;20023;-59
2022/06/04 04:22:47;;;;;;;3.05;1.83;;;;;;;21.12;48.83;102044.84;5093439;28;20031;-59
2022/06/04 04:25:13;;;;;;;1.63;1.23;;;;;;;21.12;48.42;102037.59;5113986;28;20036;-59
2022/06/04 04:27:38;;;;;;;1.30;1.20;;;;;;;21.06;48.77;102021.13;5102779;28;20059;-58
2022/06/04 04:30:06;;;;;;;2.88;1.60;;;;;;;21.12;48.76;102028.63;5104677;28;20044;-58
2022/06/04 04:32:32;;;;;;;1.88;1.67;;;;;;;21.11;48.43;102019.69;5093173;28;20046;-57
2022/06/04 04:34:59;;;;;;;2.97;1.50;;;;;;;21.10;49.07;102036.88;5091728;28;20029;-59
2022/06/04 04:37:24;;;;;;;1.63;1.50;;;;;;;21.12;49.05;102028.63;5107584;28;20038;-59
2022/06/04 04:39:49;;;;;;;1.85;1.60;;;;;;;21.09;48.98;102026.22;5104595;28;20079;-59
2022/06/04 04:42:15;;;;;;;3.28;1.80;;;;;;;21.06;49.14;102026.53;5105602;28;20032;-59
2022/06/04 04:44:40;;;;;;;1.98;1.60;;;;;;;21.09;48.94;102040.59;5108450;28;20084;-59
2022/06/04 04:47:05;;;;;;;2.92;1.92;;;;;;;21.11;49.10;102048.53;5090221;28;20023;-58
2022/06/04 04:49:31;;;;;;;3.38;1.80;;;;;;;21.09;48.86;102043.31;5106914;28;20117;-59
2022/06/04 04:51:56;;;;;;;3.25;1.80;;;;;;;21.09;49.55;102037.91;5103634;28;20034;-59
2022/06/04 04:54:22;;;;;;;1.73;1.33;;;;;;;21.09;48.71;102035.19;5106256;28;20023;-57
2022/06/04 04:56:47;;;;;;;3.33;1.70;;;;;;;21.09;49.25;102037.03;5106199;28;20023;-58
2022/06/04 04:59:12;;;;;;;2.33;1.60;;;;;;;21.08;49.81;102017.28;5104577;28;20058;-59
2022/06/04 05:01:38;;;;;;;2.88;1.70;;;;;;;21.09;49.16;102028.94;5114268;28;20016;-57
2022/06/04 05:04:03;;;;;;;1.90;1.60;;;;;;;21.07;49.87;102022.81;5108840;28;20028;-57
2022/06/04 05:06:29;;;;;;;2.63;1.75;;;;;;;21.08;49.96;102028.09;5115562;28;20353;-59
2022/06/04 05:08:54;;;;;;;5.15;2.05;;;;;;;21.07;49.81;102021.00;5104600;28;20016;-57
2022/06/04 05:11:27;;;;;;;2.85;1.83;;;;;;;21.09;50.12;102039.75;5115719;28;20031;-58
2022/06/04 05:13:52;;;;;;;2.85;1.85;;;;;;;21.03;50.42;102025.00;5120496;28;20023;-60
2022/06/04 05:16:19;;;;;;;4.43;2.53;;;;;;;21.08;50.70;102047.03;5119883;27;20088;-60
2022/06/04 05:18:45;;;;;;;2.53;1.70;;;;;;;21.08;50.67;102044.31;5110590;28;20091;-59
2022/06/04 05:21:33;;;;;;;3.53;2.15;;;;;;;21.05;50.75;102041.91;5115999;27;20373;-60
2022/06/04 05:23:59;;;;;;;2.30;1.77;;;;;;;21.09;50.69;102053.28;5111269;28;20054;-59
2022/06/04 05:26:24;;;;;;;4.18;1.55;;;;;;;21.08;50.61;102047.03;5111754;28;20536;-60
2022/06/04 05:28:50;;;;;;;2.88;1.90;;;;;;;21.08;50.57;102048.88;5106454;28;20027;-60
2022/06/04 05:31:16;;;;;;;5.05;2.42;;;;;;;21.09;50.78;102051.41;5109741;28;20051;-60
2022/06/04 05:33:41;;;;;;;4.57;1.95;;;;;;;21.09;51.00;102050.56;5104491;28;20661;-59
2022/06/04 05:36:07;;;;;;;3.42;2.10;;;;;;;21.09;50.75;102055.97;5086829;28;20024;-59
2022/06/04 05:38:34;;;;;;;3.35;2.50;;;;;;;21.09;50.77;102054.13;5109022;27;20027;-60
2022/06/04 05:41:02;;;;;;;2.15;1.77;;;;;;;21.09;51.04;102058.69;5106433;27;20032;-59
2022/06/04 05:43:27;;;;;;;3.25;1.90;;;;;;;21.08;50.93;102057.84;5105036;28;20051;-59
2022/06/04 05:45:57;;;;;;;2.00;1.80;;;;;;;21.09;51.05;102062.22;5107291;28;20024;-59
2022/06/04 05:48:22;;;;;;;2.08;1.88;;;;;;;21.09;51.26;102064.09;5108875;28;20074;-59
2022/06/04 05:50:49;;;;;;;3.03;1.92;;;;;;;21.09;50.92;102064.94;5108418;28;20024;-59
2022/06/04 05:53:14;;;;;;;2.40;2.20;;;;;;;21.06;51.42;102070.66;5111485;28;20024;-60
2022/06/04 05:55:39;;;;;;;2.97;1.90;;;;;;;21.09;51.30;102072.19;5106385;28;20107;-59
2022/06/04 05:58:05;;;;;;;2.33;1.80;;;;;;;21.09;51.39;102077.59;5088887;28;20061;-60
2022/06/04 06:00:30;;;;;;;4.30;1.90;;;;;;;21.09;51.03;102085.72;5112568;27;20032;-60
2022/06/04 06:02:55;;;;;;;2.22;1.80;;;;;;;21.08;51.31;102079.47;5107621;28;20028;-60
2022/06/04 06:05:21;;;;;;;2.72;1.90;;;;;;;21.09;51.34;102080.31;5105417;28;20028;-60
2022/06/04 06:07:46;;;;;;;2.78;2.17;;;;;;;21.08;51.31;102078.63;5106157;28;20065;-60
2022/06/04 06:10:11;;;;;;;2.40;1.90;;;;;;;21.08;51.19;102073.22;5111825;27;20655;-60
2022/06/04 06:12:37;;;;;;;2.72;1.75;;;;;;;21.06;51.13;102076.06;5108028;28;20058;-60
2022/06/04 06:15:02;;;;;;;2.90;2.13;;;;;;;21.05;51.16;102076.22;5105583;28;20043;-60
2022/06/04 06:17:27;;;;;;;4.40;2.25;;;;;;;21.08;50.99;102076.75;5107718;28;20026;-59
2022/06/04 06:19:53;;;;;;;2.17;1.75;;;;;;;21.09;51.21;102072.19;5108652;27;20653;-59
2022/06/04 06:22:18;;;;;;;2.92;1.88;;;;;;;21.08;50.97;102071.34;5109838;28;20020;-60
2022/06/04 06:24:43;;;;;;;2.47;2.00;;;;;;;21.06;50.75;102073.34;5107810;28;20099;-60
2022/06/04 06:27:10;;;;;;;2.08;1.75;;;;;;;21.09;51.00;102074.91;5105680;28;20030;-58
2022/06/04 06:29:35;;;;;;;2.17;1.58;;;;;;;21.09;51.21;102081.16;5108109;28;20071;-60
2022/06/04 06:32:00;;;;;;;3.90;1.80;;;;;;;21.08;50.65;102079.47;5097048;28;20715;-60
2022/06/04 06:34:26;;;;;;;3.55;2.00;;;;;;;21.09;51.21;102078.47;5107635;28;20035;-60
2022/06/04 06:36:51;;;;;;;2.20;1.80;;;;;;;21.10;51.00;102084.72;5106982;28;20029;-60
2022/06/04 06:39:17;;;;;;;3.10;2.03;;;;;;;21.10;50.76;102090.13;5109625;27;20055;-60
2022/06/04 06:41:43;;;;;;;2.17;1.63;;;;;;;21.09;50.88;102091.13;5111334;27;20032;-60
2022/06/04 06:44:10;;;;;;;2.22;1.60;;;;;;;21.10;51.04;102103.63;5114359;27;20054;-61
2022/06/04 06:46:39;;;;;;;3.45;1.73;;;;;;;21.10;51.10;102107.19;5106186;28;20039;-60
2022/06/04 06:49:12;;;;;;;2.65;1.75;;;;;;;21.11;50.94;102108.03;5104522;28;20035;-60
2022/06/04 06:51:40;;;;;;;2.08;1.65;;;;;;;21.11;51.17;102113.44;5115213;27;20063;-60
2022/06/04 06:54:06;;;;;;;3.72;2.20;;;;;;;21.10;51.24;102098.22;5111588;28;20108;-60
2022/06/04 06:56:33;;;;;;;3.30;1.45;;;;;;;21.11;51.09;102106.22;5107256;28;20051;-58
2022/06/04 06:59:00;;;;;;;2.45;1.80;;;;;;;21.11;50.85;102108.91;5103884;28;20019;-63
2022/06/04 07:01:26;;;;;;;2.38;1.80;;;;;;;21.12;51.09;102123.28;5108256;27;20114;-58
2022/06/04 07:03:52;;;;;;;2.17;1.60;;;;;;;21.12;50.82;102129.53;5103111;28;20039;-60
2022/06/04 07:06:29;;;;;;;4.30;1.75;;;;;;;21.08;50.86;102114.63;5109767;27;20050;-59
2022/06/04 07:08:54;;;;;;;3.33;2.08;;;;;;;21.13;50.55;102122.28;5109200;28;20020;-59
2022/06/04 07:11:20;;;;;;;4.18;1.80;;;;;;;21.12;50.70;102126.84;5110173;27;20020;-56
2022/06/04 07:13:45;;;;;;;2.20;2.00;;;;;;;21.10;50.65;102118.00;5114689;28;20024;-59
2022/06/04 07:16:10;;;;;;;2.20;1.60;;;;;;;21.13;50.74;102125.81;5110871;27;20562;-59
2022/06/04 07:18:36;;;;;;;2.65;1.77;;;;;;;21.13;50.94;102127.69;5110994;27;20020;-59
2022/06/04 07:21:04;;;;;;;2.35;1.98;;;;;;;21.14;50.65;102122.09;5110356;28;20051;-59
2022/06/04 07:23:33;;;;;;;3.17;1.73;;;;;;;21.14;50.91;102122.09;5090851;27;20056;-59
2022/06/04 07:25:59;;;;;;;2.88;1.75;;;;;;;21.15;50.96;102125.66;5109591;27;20028;-59
2022/06/04 07:28:25;;;;;;;3.15;1.63;;;;;;;21.16;50.84;102121.97;5106499;28;20073;-58
2022/06/04 07:30:50;;;;;;;2.50;1.83;;;;;;;21.16;50.73;102130.94;5113334;28;20085;-58
2022/06/04 07:33:15;;;;;;;3.78;1.90;;;;;;;21.17;50.43;102134.47;5107152;28;20031;-62
2022/06/04 07:35:46;;;;;;;2.95;2.60;;;;;;;21.17;50.60;102126.38;5105895;28;20032;-60
2022/06/04 07:38:11;;;;;;;2.47;1.67;;;;;;;21.17;50.79;102127.22;5110001;28;20024;-59
2022/06/04 07:40:37;;;;;;;3.08;2.15;;;;;;;21.17;50.79;102115.56;5109599;28;20126;-59
2022/06/04 07:43:03;;;;;;;3.65;2.33;;;;;;;21.17;50.58;102116.41;5105610;28;20469;-59
2022/06/04 07:45:28;;;;;;;2.13;1.70;;;;;;;21.17;50.64;102108.28;5103757;28;20031;-59
2022/06/04 07:47:54;;;;;;;3.33;2.00;;;;;;;21.18;50.47;102107.28;5109845;28;20032;-56
2022/06/04 07:50:19;;;;;;;2.88;1.65;;;;;;;21.20;50.13;102101.72;5101093;28;20691;-67
2022/06/04 07:52:44;;;;;;;2.25;1.73;;;;;;;21.19;50.33;102102.72;5105967;28;20035;-64
2022/06/04 07:55:10;;;;;;;2.60;1.88;;;;;;;21.20;50.43;102099.88;5112554;28;20020;-65
2022/06/04 07:57:37;;;;;;;2.25;1.48;;;;;;;21.22;50.42;102091.59;5105930;28;20046;-62
2022/06/04 08:00:05;;;;;;;2.75;1.88;;;;;;;21.17;50.26;102083.94;5106419;28;20126;-64
2022/06/04 08:02:30;;;;;;;1.58;1.45;;;;;;;21.22;50.16;102089.72;5107307;28;20051;-63
2022/06/04 08:04:56;;;;;;;2.50;1.50;;;;;;;21.25;50.28;102098.56;5108819;28;20098;-63
2022/06/04 08:07:21;;;;;;;1.83;1.58;;;;;;;21.24;49.98;102097.72;5110970;28;20055;-63
2022/06/04 08:09:48;;;;;;;3.03;1.67;;;;;;;21.28;50.14;102106.34;5107223;28;20118;-62
2022/06/04 08:12:14;;;;;;;1.77;1.55;;;;;;;21.29;49.71;102105.34;5107930;28;20111;-63
2022/06/04 08:14:40;;;;;;;2.28;1.90;;;;;;;21.30;49.87;102107.06;5107611;28;20023;-63
2022/06/04 08:17:05;;;;;;;2.08;1.42;;;;;;;21.27;49.61;102099.22;5106354;28;20026;-62
2022/06/04 08:19:32;;;;;;;3.67;1.77;;;;;;;21.29;49.91;102098.09;5088630;28;20027;-63
2022/06/04 08:21:58;;;;;;;3.00;1.83;;;;;;;21.32;49.90;102110.47;5106772;28;20080;-63
2022/06/04 08:24:24;;;;;;;2.47;1.70;;;;;;;21.34;49.87;102101.19;5113532;28;20039;-63
2022/06/04 08:26:58;;;;;;;2.25;1.70;;;;;;;21.35;49.88;102104.75;5104952;28;20032;-62
2022/06/04 08:29:24;;;;;;;2.47;1.58;;;;;;;21.35;49.47;102108.31;5096108;28;20027;-63
2022/06/04 08:31:49;;;;;;;1.65;1.25;;;;;;;21.29;49.42;102095.38;5107318;28;20077;-62
2022/06/04 08:34:15;;;;;;;2.63;2.13;;;;;;;21.37;49.64;102105.47;5105543;28;20028;-62
2022/06/04 08:36:41;;;;;;;2.78;1.83;;;;;;;21.15;49.57;102071.56;5108779;28;20042;-63
2022/06/04 08:39:07;;;;;;;3.17;1.65;;;;;;;21.37;49.18;102114.44;5104456;28;20027;-63
2022/06/04 08:41:46;;;;;;;2.35;1.40;;;;;;;21.40;49.27;102110.53;5105920;28;20044;-62
2022/06/04 08:44:14;;;;;;;;;;;;;;;21.39;49.46;102100.72;5091602;28;20079;-63
2022/06/04 08:46:49;;;;;;;2.08;1.50;;;;;;;21.40;49.02;102111.38;5110479;28;19912;-63
2022/06/04 08:49:23;;;;;;;3.20;1.75;;;;;;;21.41;49.07;102110.41;5085003;28;20604;-63
2022/06/04 08:51:48;;;;;;;2.47;1.73;;;;;;;21.40;49.00;102105.97;5103373;28;20075;-63
2022/06/04 09:00:13;;;;;;;2.05;1.58;;;;;;;21.40;49.06;102092.44;5090131;28;20038;-62
2022/06/04 09:02:44;;;;;;;2.90;1.60;;;;;;;21.44;48.72;102093.84;5083973;28;20028;-62
2022/06/04 09:05:12;;;;;;;2.33;1.58;;;;;;;21.44;48.96;102099.25;5106944;28;20047;-63
2022/06/04 09:07:41;;;;;;;2.45;1.55;;;;;;;21.43;48.80;102107.53;5108389;28;20484;-63
2022/06/04 09:10:15;;;;;;;2.53;1.73;;;;;;;21.40;48.98;102095.16;5105546;28;20035;-63
2022/06/04 09:13:02;;;;;;;2.28;1.63;;;;;;;21.43;48.84;102097.56;5091320;28;20065;-63
2022/06/04 09:15:38;;;;;;;1.98;1.50;;;;;;;21.39;48.74;102082.63;5111416;28;20028;-63
2022/06/04 09:18:11;;;;;;;2.80;1.52;;;;;;;21.40;48.92;102078.06;5090355;28;20027;-62
2022/06/04 09:20:40;;;;;;;1.85;1.48;;;;;;;21.43;48.94;102084.03;5089498;28;20730;-62
2022/06/04 09:23:06;;;;;;;;;;;;;;;21.48;48.82;102088.13;5086094;28;20058;-63
2022/06/04 09:25:45;;;;;;;1.92;1.40;;;;;;;21.49;48.53;102087.94;5114727;28;19918;-62
2022/06/04 09:28:16;;;;;;;2.20;1.60;;;;;;;21.49;48.93;102089.81;5090036;28;20024;-62
2022/06/04 09:31:13;;;;;;;2.05;1.85;;;;;;;21.50;48.56;102088.81;5092956;28;20095;-63
2022/06/04 09:33:55;;;;;;;1.83;1.42;;;;;;;21.50;48.75;102091.53;5097150;28;20641;-63
2022/06/04 09:36:25;;;;;;;2.17;1.10;;;;;;;21.51;48.68;102090.53;5110136;28;20050;-62
2022/06/04 09:38:54;;;;;;;1.85;1.58;;;;;;;21.50;48.71;102096.94;5088554;28;20023;-63
2022/06/04 09:41:22;;;;;;;2.20;1.88;;;;;;;21.48;48.69;102096.25;5093085;28;20040;-63
2022/06/04 09:44:08;;;;;;;2.97;1.52;;;;;;;21.51;48.74;102102.19;5108224;28;20036;-63
2022/06/04 09:46:34;;;;;;;1.73;1.48;;;;;;;21.37;48.51;102081.97;5097388;28;20101;-63
2022/06/04 09:49:00;;;;;;;1.92;1.63;;;;;;;21.49;48.57;102106.03;5102843;28;20028;-62
2022/06/04 09:51:27;;;;;;;2.33;1.30;;;;;;;21.52;48.47;102103.03;5105596;28;20024;-63
2022/06/04 09:54:02;;;;;;;2.00;1.80;;;;;;;21.51;48.55;102093.22;5091616;28;20020;-62
2022/06/04 09:56:40;;;;;;;1.40;1.30;;;;;;;21.52;48.56;102098.47;5105271;28;20032;-62
2022/06/04 09:59:28;;;;;;;1.90;1.50;;;;;;;21.52;48.41;102098.47;5094080;28;20020;-63
2022/06/04 10:02:10;;;;;;;2.28;1.67;;;;;;;21.52;48.31;102101.19;5104169;28;20106;-62
2022/06/04 10:04:49;;;;;;;2.03;1.40;;;;;;;21.52;48.74;102109.28;5113994;28;20069;-62
2022/06/04 10:07:20;;;;;;;2.35;1.50;;;;;;;21.52;48.71;102103.88;5108043;28;20021;-63
2022/06/04 10:09:57;;;;;;;2.03;1.50;;;;;;;21.52;48.79;102105.75;5110369;27;20035;-63
2022/06/04 10:15:25;;;;;;;2.92;1.92;;;;;;;21.53;48.75;102107.44;5110788;28;20022;-63
2022/06/04 10:18:05;;;;;;;2.22;1.60;;;;;;;21.53;48.75;102110.97;5111668;28;20039;-62
2022/06/04 10:20:31;;;;;;;2.38;1.67;;;;;;;21.53;48.53;102110.13;5107204;28;20012;-62
2022/06/04 10:22:57;;;;;;;1.73;1.30;;;;;;;21.53;48.60;102110.97;5111957;28;20063;-63
2022/06/04 10:25:46;;;;;;;1.63;1.40;;;;;;;21.55;48.45;102108.13;5118711;28;20424;-62
2022/06/04 10:28:41;;;;;;;1.67;1.48;;;;;;;21.56;48.84;102107.97;5089188;28;20126;-63
2022/06/04 10:31:24;;;;;;;1.73;1.50;;;;;;;21.58;48.71;102113.22;5115073;28;20024;-63
2022/06/04 10:34:01;;;;;;;1.73;1.60;;;;;;;21.53;48.85;102107.44;5090385;28;20021;-63
2022/06/04 10:36:49;;;;;;;2.08;1.52;;;;;;;21.59;48.49;102109.53;5096380;28;20028;-63
2022/06/04 10:39:23;;;;;;;2.10;1.67;;;;;;;21.60;48.42;102120.19;5089180;28;20032;-62
2022/06/04 10:42:05;;;;;;;3.17;1.85;;;;;;;21.60;48.64;102116.63;5108722;28;20020;-63
2022/06/04 10:44:49;;;;;;;2.92;1.60;;;;;;;21.61;48.25;102121.03;5106782;28;20024;-63
2022/06/04 10:47:26;;;;;;;2.15;1.58;;;;;;;21.62;48.61;102120.00;5094127;28;20087;-63
2022/06/04 10:50:05;;;;;;;1.50;1.40;;;;;;;21.63;48.55;102124.44;5112083;28;20023;-61
2022/06/04 10:52:46;;;;;;;4.40;1.70;;;;;;;21.64;48.50;102126.97;5107573;28;20058;-59
2022/06/04 10:55:28;;;;;;;2.05;1.60;;;;;;;21.65;48.67;102125.13;5108113;28;20024;-59
2022/06/04 10:58:24;;;;;;;1.83;1.20;;;;;;;21.69;48.70;102132.78;5092914;27;20064;-60
2022/06/04 11:00:54;;;;;;;1.40;1.30;;;;;;;21.69;48.63;102132.78;5116970;27;20495;-60
2022/06/04 11:03:32;;;;;;;2.45;1.60;;;;;;;21.73;48.26;102125.19;5095535;28;20023;-68
2022/06/04 11:06:02;;;;;;;1.95;1.45;;;;;;;21.77;48.27;102136.56;5089621;28;20036;-64
2022/06/04 11:08:32;;;;;;;2.75;1.65;;;;;;;21.78;48.41;102139.09;5106594;28;20039;-64
2022/06/04 11:11:09;;;;;;;2.50;1.63;;;;;;;21.80;48.43;102130.84;5109752;28;20035;-64
2022/06/04 11:13:42;;;;;;;2.85;1.95;;;;;;;21.79;48.64;102135.41;5086751;28;20042;-64
2022/06/04 11:16:24;;;;;;;1.92;1.73;;;;;;;21.80;48.53;102128.13;5087320;28;20066;-64
2022/06/04 11:19:03;;;;;;;2.55;1.92;;;;;;;21.80;48.43;102122.72;5105454;28;20111;-64
2022/06/04 11:21:47;;;;;;;2.92;1.83;;;;;;;21.79;48.53;102121.00;5107982;28;20027;-63
2022/06/04 11:24:26;;;;;;;3.55;1.77;;;;;;;21.78;48.67;102120.16;5089443;28;20027;-64
2022/06/04 11:27:15;;;;;;;2.20;1.70;;;;;;;21.80;48.56;102114.59;5110419;28;20028;-64
2022/06/04 11:29:41;;;;;;;;;;;;;;;21.79;48.33;102110.16;5105009;28;20053;-63
2022/06/04 11:32:12;;;;;;;2.90;2.08;;;;;;;21.81;48.49;102116.28;5109486;28;19912;-63
2022/06/04 11:34:43;;;;;;;4.10;2.65;;;;;;;21.80;48.45;102106.47;5104708;28;20015;-63
2022/06/04 11:37:24;;;;;;;2.63;1.90;;;;;;;21.80;48.57;102114.59;5107008;28;20059;-64
2022/06/04 11:40:12;;;;;;;2.92;1.92;;;;;;;21.81;48.84;102113.56;5106053;28;20610;-64
2022/06/04 11:42:48;;;;;;;3.30;1.77;;;;;;;21.82;48.55;102121.53;5090326;28;20236;-64
2022/06/04 11:45:32;;;;;;;2.97;2.00;;;;;;;21.83;48.75;102112.38;5110948;28;21049;-64
2022/06/04 11:48:13;;;;;;;1.92;1.60;;;;;;;21.84;48.81;102107.84;5104164;28;20020;-63
2022/06/04 11:51:00;;;;;;;2.55;1.88;;;;;;;21.85;48.72;102109.53;5091534;28;20036;-64
2022/06/04 11:53:38;;;;;;;2.65;1.67;;;;;;;21.86;48.85;102122.91;5104630;28;20020;-63
2022/06/04 11:56:13;;;;;;;3.45;1.85;;;;;;;21.87;48.61;102111.06;5106218;28;20073;-63
2022/06/04 11:58:45;;;;;;;2.83;1.85;;;;;;;21.89;48.77;102114.47;5107864;28;20216;-64
2022/06/04 12:01:14;;;;;;;1.98;1.55;;;;;;;21.87;48.86;102111.06;5103058;28;20488;-64